createdAt,value
2022-10-17T00:02:34.026Z,1.95
2022-10-17T00:05:10.173Z,2.00
2022-10-17T00:07:46.633Z,2.00
2022-10-17T00:10:21.858Z,2.38
2022-10-17T00:13:00.998Z,1.90
2022-10-17T00:15:37.132Z,2.00
2022-10-17T00:18:13.507Z,2.10
2022-10-17T00:20:50.687Z,2.25
2022-10-17T00:23:30.454Z,2.00
2022-10-17T00:26:05.910Z,1.80
2022-10-17T00:28:40.647Z,1.98
2022-10-17T00:31:18.155Z,2.08
2022-10-17T00:33:52.921Z,2.00
2022-10-17T00:36:28.281Z,2.20
2022-10-17T00:39:04.953Z,1.85
2022-10-17T00:41:41.296Z,1.95
2022-10-17T00:44:29.631Z,1.83
2022-10-17T00:47:04.583Z,1.80
2022-10-17T00:49:40.977Z,1.70
2022-10-17T00:52:16.864Z,1.67
2022-10-17T00:54:54.383Z,1.60
2022-10-17T00:57:32.875Z,1.63
2022-10-17T01:00:12.231Z,1.83
2022-10-17T01:02:48.357Z,1.60
2022-10-17T01:05:24.806Z,1.58
2022-10-17T01:07:59.384Z,1.35
2022-10-17T01:10:40.153Z,1.50
2022-10-17T01:13:16.765Z,1.95
2022-10-17T01:15:56.877Z,1.67
2022-10-17T01:18:35.782Z,1.80
2022-10-17T01:21:23.076Z,1.67
2022-10-17T01:24:08.514Z,1.75
2022-10-17T01:26:55.662Z,1.60
2022-10-17T01:29:39.847Z,1.70
2022-10-17T01:32:21.303Z,1.70
2022-10-17T01:35:00.530Z,1.67
2022-10-17T01:37:38.616Z,1.85
2022-10-17T01:40:17.513Z,1.75
2022-10-17T01:43:07.190Z,1.92
2022-10-17T01:45:51.877Z,1.70
2022-10-17T01:48:32.232Z,1.85
2022-10-17T01:51:07.967Z,1.73
2022-10-17T01:53:46.817Z,1.50
2022-10-17T01:56:24.929Z,1.70
2022-10-17T01:59:02.720Z,1.88
2022-10-17T02:01:43.503Z,1.70
2022-10-17T02:04:20.626Z,1.65
2022-10-17T02:06:57.474Z,1.50
2022-10-17T02:09:33.316Z,1.85
2022-10-17T02:12:22.475Z,1.58
2022-10-17T02:15:14.331Z,1.40
2022-10-17T02:17:51.677Z,1.48
2022-10-17T02:20:31.983Z,1.40
2022-10-17T02:23:08.624Z,1.63
2022-10-17T02:25:48.522Z,1.58
2022-10-17T02:28:29.806Z,1.60
2022-10-17T02:31:07.586Z,1.45
2022-10-17T02:33:46.595Z,1.63
2022-10-17T02:36:26.863Z,1.90
2022-10-17T02:39:03.389Z,1.73
2022-10-17T02:41:40.923Z,1.63
2022-10-17T02:44:15.428Z,1.33
2022-10-17T02:46:57.644Z,1.52
2022-10-17T02:49:34.919Z,1.50
2022-10-17T02:52:15.493Z,2.00
2022-10-17T02:54:53.485Z,1.80
2022-10-17T02:57:30.157Z,1.40
2022-10-17T03:00:06.396Z,1.73
2022-10-17T03:02:45.128Z,1.88
2022-10-17T03:05:24.483Z,1.67
2022-10-17T03:08:01.203Z,2.03
2022-10-17T03:10:35.815Z,1.58
2022-10-17T03:13:10.341Z,1.90
2022-10-17T03:15:51.498Z,1.60
2022-10-17T03:18:26.318Z,1.90
2022-10-17T03:21:08.075Z,1.63
2022-10-17T03:23:50.995Z,1.73
2022-10-17T03:26:27.704Z,1.65
2022-10-17T03:29:02.583Z,1.70
2022-10-17T03:31:37.490Z,1.67
2022-10-17T03:34:13.919Z,1.65
2022-10-17T03:36:48.354Z,1.98
2022-10-17T03:39:27.851Z,1.50
2022-10-17T03:42:12.033Z,2.05
2022-10-17T03:44:46.456Z,1.80
2022-10-17T03:47:20.747Z,1.70
2022-10-17T03:50:00.219Z,1.58
2022-10-17T03:52:40.750Z,1.90
2022-10-17T03:55:17.648Z,1.70
2022-10-17T03:57:52.641Z,1.35
2022-10-17T04:00:29.628Z,1.58
2022-10-17T04:03:05.091Z,1.58
2022-10-17T04:05:39.768Z,1.40
2022-10-17T04:08:13.994Z,1.60
2022-10-17T04:11:18.699Z,1.55
2022-10-17T04:13:57.842Z,1.80
2022-10-17T04:16:33.273Z,1.90
2022-10-17T04:19:11.587Z,1.58
2022-10-17T04:21:49.012Z,1.80
2022-10-17T04:24:24.253Z,2.10
2022-10-17T04:27:18.718Z,1.70
2022-10-17T04:29:53.499Z,1.83
2022-10-17T04:32:33.141Z,1.70
2022-10-17T04:35:18.607Z,1.52
2022-10-17T04:37:57.820Z,1.70
2022-10-17T04:40:32.142Z,1.90
2022-10-17T04:43:08.383Z,1.70
2022-10-17T04:45:44.115Z,1.83
2022-10-17T04:48:19.362Z,2.05
2022-10-17T04:51:00.050Z,1.63
2022-10-17T04:53:49.978Z,1.50
2022-10-17T04:56:26.699Z,1.77
2022-10-17T04:59:04.648Z,1.60
2022-10-17T05:01:41.128Z,1.50
2022-10-17T05:04:16.963Z,1.60
2022-10-17T05:06:55.730Z,1.77
2022-10-17T05:09:39.823Z,1.65
2022-10-17T05:12:15.108Z,1.63
2022-10-17T05:14:54.701Z,1.55
2022-10-17T05:17:33.038Z,1.38
2022-10-17T05:20:08.355Z,1.73
2022-10-17T05:22:45.203Z,1.48
2022-10-17T05:25:20.381Z,1.40
2022-10-17T05:27:56.187Z,1.40
2022-10-17T05:30:35.299Z,1.48
2022-10-17T05:33:19.531Z,1.65
2022-10-17T05:35:54.973Z,1.38
2022-10-17T05:38:32.657Z,1.10
2022-10-17T05:41:10.979Z,1.30
2022-10-17T05:43:45.760Z,1.63
2022-10-17T05:46:27.735Z,1.35
2022-10-17T05:49:10.661Z,1.63
2022-10-17T05:51:55.539Z,1.50
2022-10-17T05:54:31.692Z,1.50
2022-10-17T05:57:06.907Z,1.27
2022-10-17T05:59:43.261Z,1.42
2022-10-17T06:02:28.056Z,1.60
2022-10-17T06:05:03.738Z,1.40
2022-10-17T06:07:40.035Z,1.23
2022-10-17T06:10:18.051Z,1.67
2022-10-17T06:12:53.968Z,1.50
2022-10-17T06:15:29.501Z,1.48
2022-10-17T06:18:14.323Z,1.98
2022-10-17T06:20:50.112Z,1.60
2022-10-17T06:23:26.903Z,1.50
2022-10-17T06:26:08.594Z,1.88
2022-10-17T06:28:44.964Z,1.77
2022-10-17T06:31:21.264Z,1.52
2022-10-17T06:33:59.435Z,1.73
2022-10-17T06:36:34.907Z,1.77
2022-10-17T06:39:14.433Z,1.30
2022-10-17T06:42:01.400Z,1.50
2022-10-17T06:45:02.025Z,1.70
2022-10-17T06:48:01.911Z,1.50
2022-10-17T06:51:04.686Z,1.70
2022-10-17T06:53:51.477Z,1.70
2022-10-17T06:56:57.803Z,1.33
2022-10-17T06:59:57.073Z,1.50
2022-10-17T07:02:39.387Z,1.42
2022-10-17T07:05:16.886Z,1.80
2022-10-17T07:07:55.700Z,1.63
2022-10-17T07:10:31.327Z,1.48
2022-10-17T07:13:07.111Z,1.58
2022-10-17T07:15:44.867Z,1.60
2022-10-17T07:18:21.877Z,1.40
2022-10-17T07:20:59.740Z,1.45
2022-10-17T07:23:38.587Z,1.63
2022-10-17T07:26:19.696Z,1.60
2022-10-17T07:29:00.885Z,2.13
2022-10-17T07:31:50.484Z,1.23
2022-10-17T07:34:43.903Z,1.73
2022-10-17T07:37:20.097Z,1.58
2022-10-17T07:40:03.022Z,2.00
2022-10-17T07:45:19.469Z,1.50
2022-10-17T07:47:55.052Z,1.75
2022-10-17T07:50:30.875Z,1.52
2022-10-17T07:53:05.961Z,1.70
2022-10-17T07:55:43.114Z,2.33
2022-10-17T07:58:20.923Z,1.80
2022-10-17T08:00:56.361Z,2.45
2022-10-17T08:03:31.410Z,1.73
2022-10-17T08:06:07.410Z,1.80
2022-10-17T08:08:43.052Z,1.85
2022-10-17T08:11:21.025Z,1.70
2022-10-17T08:13:55.204Z,1.50
2022-10-17T08:16:30.715Z,2.28
2022-10-17T08:21:43.866Z,2.05
2022-10-17T08:24:20.407Z,1.80
2022-10-17T08:26:59.135Z,1.58
2022-10-17T08:29:35.894Z,1.60
2022-10-17T08:32:12.236Z,1.55
2022-10-17T08:35:07.045Z,1.88
2022-10-17T08:37:42.382Z,1.80
2022-10-17T08:40:25.357Z,1.90
2022-10-17T08:43:32.235Z,1.85
2022-10-17T08:46:13.339Z,1.80
2022-10-17T08:48:51.296Z,2.05
2022-10-17T08:51:29.042Z,1.83
2022-10-17T08:54:08.801Z,1.63
2022-10-17T08:56:49.471Z,1.40
2022-10-17T08:59:29.857Z,1.77
2022-10-17T09:02:20.531Z,1.58
2022-10-17T09:05:10.377Z,1.60
2022-10-17T09:07:52.146Z,1.50
2022-10-17T09:10:37.937Z,2.08
2022-10-17T09:13:21.595Z,1.73
2022-10-17T09:16:06.174Z,2.08
2022-10-17T09:18:43.411Z,1.40
2022-10-17T09:21:25.991Z,1.50
2022-10-17T09:24:09.625Z,2.30
2022-10-17T09:26:50.039Z,1.83
2022-10-17T09:29:35.346Z,1.73
2022-10-17T09:32:18.883Z,1.67
2022-10-17T09:34:54.334Z,1.50
2022-10-17T09:37:35.082Z,1.60
2022-10-17T09:40:14.005Z,1.30
2022-10-17T09:42:52.928Z,1.40
2022-10-17T09:45:32.711Z,1.80
2022-10-17T09:48:12.914Z,1.70
2022-10-17T09:50:57.919Z,1.55
2022-10-17T09:53:46.790Z,1.92
2022-10-17T09:56:24.178Z,1.63
2022-10-17T09:59:03.032Z,1.30
2022-10-17T10:01:38.067Z,1.20
2022-10-17T10:04:19.474Z,1.30
2022-10-17T10:07:08.368Z,1.30
2022-10-17T10:09:47.385Z,1.63
2022-10-17T10:12:24.833Z,1.30
2022-10-17T10:15:01.972Z,1.58
2022-10-17T10:17:48.439Z,1.55
2022-10-17T10:20:38.572Z,1.30
2022-10-17T10:23:19.958Z,1.40
2022-10-17T10:26:02.408Z,1.40
2022-10-17T10:28:39.599Z,1.50
2022-10-17T10:31:15.756Z,1.50
2022-10-17T10:33:53.641Z,1.23
2022-10-17T10:36:49.390Z,1.10
2022-10-17T10:39:55.414Z,1.27
2022-10-17T10:42:33.676Z,1.52
2022-10-17T10:45:19.148Z,1.23
2022-10-17T10:48:06.874Z,1.30
2022-10-17T10:50:45.518Z,1.30
2022-10-17T10:53:37.100Z,1.33
2022-10-17T10:56:15.629Z,1.52
2022-10-17T10:59:01.594Z,1.42
2022-10-17T11:01:46.632Z,1.50
2022-10-17T11:04:27.511Z,1.52
2022-10-17T11:07:07.740Z,1.20
2022-10-17T11:09:53.141Z,1.80
2022-10-17T11:12:31.855Z,1.50
2022-10-17T11:15:11.188Z,1.30
2022-10-17T11:17:49.622Z,1.63
2022-10-17T11:20:28.507Z,1.63
2022-10-17T11:23:06.540Z,1.30
2022-10-17T11:25:45.661Z,1.50
2022-10-17T11:28:20.464Z,1.40
2022-10-17T11:30:57.057Z,1.27
2022-10-17T11:33:36.350Z,1.20
2022-10-17T11:36:14.504Z,1.35
2022-10-17T11:38:51.307Z,1.38
2022-10-17T11:41:34.719Z,1.25
2022-10-17T11:44:10.804Z,1.40
2022-10-17T11:46:49.138Z,1.10
2022-10-17T11:52:05.494Z,1.30
2022-10-17T11:54:43.068Z,1.30
2022-10-17T11:57:38.860Z,1.30
2022-10-17T12:00:30.811Z,1.25
2022-10-17T12:03:21.047Z,1.65
2022-10-17T12:06:00.303Z,1.23
2022-10-17T12:08:41.415Z,1.55
2022-10-17T12:11:28.482Z,1.13
2022-10-17T12:14:06.343Z,1.10
2022-10-17T12:16:51.162Z,1.08
2022-10-17T12:19:34.169Z,1.20
2022-10-17T12:22:30.195Z,1.27
2022-10-17T12:25:08.023Z,1.30
2022-10-17T12:27:50.817Z,1.30
2022-10-17T12:30:32.179Z,1.20
2022-10-17T12:33:29.475Z,1.25
2022-10-17T12:36:51.074Z,1.35
2022-10-17T12:39:55.233Z,1.30
2022-10-17T12:42:54.261Z,1.30
2022-10-17T12:45:56.325Z,1.30
2022-10-17T12:49:02.271Z,1.33
2022-10-17T12:52:10.156Z,1.50
2022-10-17T12:55:00.188Z,1.35
2022-10-17T12:57:53.807Z,1.20
2022-10-17T13:00:39.838Z,1.30
2022-10-17T13:03:24.367Z,1.40
2022-10-17T13:06:01.899Z,1.10
2022-10-17T13:08:40.364Z,1.30
2022-10-17T13:11:19.036Z,1.42
2022-10-17T13:13:57.617Z,1.10
2022-10-17T13:16:36.664Z,1.40
2022-10-17T13:19:20.602Z,1.45
2022-10-17T13:22:06.770Z,1.23
2022-10-17T13:24:44.417Z,1.45
2022-10-17T13:27:31.806Z,1.15
2022-10-17T13:30:26.732Z,1.30
2022-10-17T13:33:06.022Z,1.00
2022-10-17T13:36:00.968Z,1.05
2022-10-17T13:38:41.716Z,1.52
2022-10-17T13:41:35.439Z,1.20
2022-10-17T13:44:18.420Z,1.40
2022-10-17T13:46:54.012Z,1.40
2022-10-17T13:49:35.594Z,1.30
2022-10-17T13:52:20.956Z,1.20
2022-10-17T13:54:57.312Z,1.48
2022-10-17T13:57:34.337Z,1.65
2022-10-17T14:00:15.777Z,1.33
2022-10-17T14:02:51.633Z,1.27
2022-10-17T14:05:27.469Z,1.40
2022-10-17T14:08:11.816Z,1.33
2022-10-17T14:10:49.017Z,1.42
2022-10-17T14:13:28.075Z,1.27
2022-10-17T14:16:10.224Z,1.20
2022-10-17T14:18:51.228Z,1.30
2022-10-17T14:21:43.232Z,1.00
2022-10-17T14:24:31.419Z,1.45
2022-10-17T14:27:07.180Z,1.27
2022-10-17T14:29:57.735Z,1.15
2022-10-17T14:32:35.112Z,1.10
2022-10-17T14:35:41.004Z,1.17
2022-10-17T14:38:21.028Z,1.48
2022-10-17T14:44:27.150Z,1.30
2022-10-17T14:47:18.625Z,1.20
2022-10-17T14:50:11.006Z,1.50
2022-10-17T14:52:46.708Z,1.38
2022-10-17T14:55:29.100Z,1.20
2022-10-17T14:58:06.645Z,1.17
2022-10-17T15:00:41.891Z,1.10
2022-10-17T15:03:17.119Z,1.20
2022-10-17T15:05:52.510Z,1.00
2022-10-17T15:08:28.496Z,1.35
2022-10-17T15:11:03.982Z,1.08
2022-10-17T15:13:45.376Z,1.15
2022-10-17T15:16:25.103Z,1.30
2022-10-17T15:19:00.172Z,1.42
2022-10-17T15:21:39.485Z,1.08
2022-10-17T15:24:16.766Z,1.05
2022-10-17T15:26:52.000Z,1.13
2022-10-17T15:29:29.291Z,1.10
2022-10-17T15:32:04.890Z,1.27
2022-10-17T15:34:40.190Z,1.10
2022-10-17T15:37:27.169Z,1.40
2022-10-17T15:40:03.533Z,1.15
2022-10-17T15:42:38.763Z,1.15
2022-10-17T15:45:37.732Z,1.30
2022-10-17T15:48:20.622Z,1.10
2022-10-17T15:50:56.111Z,1.10
2022-10-17T15:53:31.217Z,1.30
2022-10-17T15:56:07.138Z,1.15
2022-10-17T15:58:45.994Z,1.10
2022-10-17T16:01:27.816Z,1.30
2022-10-17T16:04:03.654Z,1.35
2022-10-17T16:06:38.679Z,1.30
2022-10-17T16:09:14.229Z,1.30
2022-10-17T16:11:51.406Z,1.13
2022-10-17T16:14:30.162Z,1.05
2022-10-17T16:17:07.693Z,1.30
2022-10-17T16:19:43.166Z,1.20
2022-10-17T16:22:29.590Z,1.40
2022-10-17T16:25:11.556Z,1.20
2022-10-17T16:27:46.933Z,1.40
2022-10-17T16:33:00.431Z,1.40
2022-10-17T16:35:37.612Z,1.30
2022-10-17T16:38:13.329Z,1.20
2022-10-17T16:40:48.717Z,0.93
2022-10-17T16:43:23.883Z,1.25
2022-10-17T16:46:00.094Z,1.00
2022-10-17T16:48:37.284Z,1.23
2022-10-17T16:51:12.660Z,1.30
2022-10-17T16:53:48.183Z,1.20
2022-10-17T16:56:24.837Z,1.40
2022-10-17T16:59:00.353Z,1.30
2022-10-17T17:01:35.719Z,1.30
2022-10-17T17:04:13.332Z,1.58
2022-10-17T17:06:49.488Z,1.23
2022-10-17T17:09:24.997Z,1.20
2022-10-17T17:12:01.430Z,1.40
2022-10-17T17:14:36.945Z,1.52
2022-10-17T17:17:19.630Z,1.50
2022-10-17T17:20:07.896Z,1.20
2022-10-17T17:22:43.051Z,1.45
2022-10-17T17:25:18.472Z,1.20
2022-10-17T17:27:53.930Z,1.67
2022-10-17T17:30:28.977Z,1.40
2022-10-17T17:33:05.147Z,1.10
2022-10-17T17:35:44.817Z,1.20
2022-10-17T17:38:19.828Z,1.20
2022-10-17T17:40:56.394Z,1.27
2022-10-17T17:43:31.967Z,1.20
2022-10-17T17:46:08.214Z,1.52
2022-10-17T17:48:44.187Z,1.42
2022-10-17T17:51:26.895Z,1.48
2022-10-17T17:54:04.517Z,1.20
2022-10-17T17:56:41.337Z,1.38
2022-10-17T17:59:17.256Z,1.50
2022-10-17T18:01:52.338Z,1.17
2022-10-17T18:04:27.381Z,1.50
2022-10-17T18:07:04.640Z,1.40
2022-10-17T18:09:40.131Z,1.17
2022-10-17T18:12:15.169Z,1.23
2022-10-17T18:14:50.412Z,1.85
2022-10-17T18:17:27.707Z,1.55
2022-10-17T18:20:02.709Z,1.30
2022-10-17T18:22:40.273Z,1.35
2022-10-17T18:25:16.672Z,1.50
2022-10-17T18:27:54.868Z,1.40
2022-10-17T18:30:33.674Z,1.50
2022-10-17T18:33:09.832Z,1.40
2022-10-17T18:35:44.875Z,1.30
2022-10-17T18:38:21.826Z,1.30
2022-10-17T18:41:05.793Z,1.35
2022-10-17T18:43:42.164Z,1.38
2022-10-17T18:46:19.120Z,1.50
2022-10-17T18:48:54.944Z,1.23
2022-10-17T18:51:32.340Z,1.27
2022-10-17T18:54:09.474Z,1.10
2022-10-17T18:56:45.170Z,1.30
2022-10-17T18:59:20.564Z,1.08
2022-10-17T19:01:56.170Z,1.42
2022-10-17T19:04:31.581Z,1.27
2022-10-17T19:07:06.809Z,1.20
2022-10-17T19:09:43.677Z,1.10
2022-10-17T19:12:18.847Z,1.20
2022-10-17T19:14:57.888Z,1.30
2022-10-17T19:17:33.237Z,1.40
2022-10-17T19:20:08.669Z,1.23
2022-10-17T19:22:44.870Z,1.27
2022-10-17T19:25:23.183Z,1.38
2022-10-17T19:27:58.212Z,1.40
2022-10-17T19:30:35.982Z,1.17
2022-10-17T19:33:11.247Z,1.00
2022-10-17T19:35:46.634Z,1.20
2022-10-17T19:38:21.649Z,1.55
2022-10-17T19:41:18.301Z,1.30
2022-10-17T19:43:55.104Z,1.33
2022-10-17T19:46:32.434Z,1.73
2022-10-17T19:49:07.889Z,1.23
2022-10-17T19:51:43.285Z,1.30
2022-10-17T19:54:20.285Z,1.10
2022-10-17T19:56:57.350Z,1.27
2022-10-17T19:59:32.398Z,1.23
2022-10-17T20:02:08.636Z,1.20
2022-10-17T20:05:00.034Z,1.25
2022-10-17T20:07:41.971Z,1.25
2022-10-17T20:10:17.107Z,1.70
2022-10-17T20:12:54.174Z,2.08
2022-10-17T20:15:29.381Z,2.45
2022-10-17T20:18:04.649Z,2.30
2022-10-17T20:20:40.909Z,1.80
2022-10-17T20:23:16.794Z,1.80
2022-10-17T20:26:01.183Z,1.60
2022-10-17T20:28:49.224Z,1.67
2022-10-17T20:31:24.227Z,1.52
2022-10-17T20:34:02.853Z,1.20
2022-10-17T20:36:38.766Z,1.27
2022-10-17T20:39:15.086Z,1.00
2022-10-17T20:41:50.801Z,1.30
2022-10-17T20:44:27.695Z,1.20
2022-10-17T20:47:04.597Z,1.42
2022-10-17T20:49:39.792Z,1.38
2022-10-17T20:52:15.301Z,1.20
2022-10-17T20:54:50.508Z,1.42
2022-10-17T20:57:25.576Z,1.25
2022-10-17T21:00:02.736Z,1.23
2022-10-17T21:02:38.348Z,1.33
2022-10-17T21:05:13.867Z,1.30
2022-10-17T21:07:49.207Z,1.30
2022-10-17T21:10:34.844Z,1.40
2022-10-17T21:13:10.747Z,1.25
2022-10-17T21:15:48.635Z,1.20
2022-10-17T21:18:25.910Z,1.30
2022-10-17T21:21:10.256Z,1.35
2022-10-17T21:23:45.327Z,1.38
2022-10-17T21:26:22.411Z,1.20
2022-10-17T21:28:57.698Z,1.05
2022-10-17T21:31:35.728Z,0.90
2022-10-17T21:34:13.523Z,1.10
2022-10-17T21:36:49.920Z,1.20
2022-10-17T21:39:26.461Z,1.20
2022-10-17T21:42:01.537Z,1.30
2022-10-17T21:44:37.960Z,1.60
2022-10-17T21:47:36.328Z,1.15
2022-10-17T21:50:14.393Z,1.05
2022-10-17T21:52:52.103Z,1.20
2022-10-17T21:55:27.697Z,1.30
2022-10-17T21:58:02.655Z,1.65
2022-10-17T22:00:36.803Z,1.05
2022-10-17T22:03:14.442Z,1.40
2022-10-17T22:05:49.272Z,1.13
2022-10-17T22:08:24.318Z,0.80
2022-10-17T22:11:02.521Z,1.27
2022-10-17T22:13:37.350Z,1.23
2022-10-17T22:16:15.925Z,1.00
2022-10-17T22:18:53.099Z,1.10
2022-10-17T22:21:30.408Z,1.00
2022-10-17T22:24:07.242Z,1.10
2022-10-17T22:26:46.133Z,1.08
2022-10-17T22:29:22.553Z,1.15
2022-10-17T22:31:59.369Z,1.10
2022-10-17T22:34:36.644Z,1.27
2022-10-17T22:37:13.233Z,1.05
2022-10-17T22:39:48.011Z,1.00
2022-10-17T22:42:23.786Z,1.20
2022-10-17T22:45:01.736Z,1.00
2022-10-17T22:47:37.083Z,1.23
2022-10-17T22:50:13.663Z,1.40
2022-10-17T22:52:49.016Z,1.20
2022-10-17T22:55:24.274Z,1.35
2022-10-17T22:57:59.299Z,1.20
2022-10-17T23:00:35.651Z,1.08
2022-10-17T23:03:09.840Z,1.20
2022-10-17T23:05:47.173Z,1.13
2022-10-17T23:08:22.859Z,0.90
2022-10-17T23:10:58.419Z,1.35
2022-10-17T23:13:34.968Z,0.90
2022-10-17T23:16:09.457Z,0.90
2022-10-17T23:18:43.917Z,1.00
2022-10-17T23:21:20.609Z,1.25
2022-10-17T23:23:54.782Z,1.10
2022-10-17T23:26:29.770Z,1.10
2022-10-17T23:29:04.604Z,1.10
2022-10-17T23:31:40.265Z,1.02
2022-10-17T23:34:17.406Z,0.85
2022-10-17T23:36:57.029Z,0.85
2022-10-17T23:39:31.222Z,1.17
2022-10-17T23:42:06.757Z,0.93
2022-10-17T23:44:43.007Z,1.20
2022-10-17T23:47:19.598Z,1.13
2022-10-17T23:49:55.332Z,0.95
2022-10-17T23:52:33.840Z,1.20
2022-10-17T23:55:30.625Z,1.20
2022-10-17T23:58:05.759Z,1.13
